Latest Coastal Weather Observations for Pirlangimpi (Garden Point)

IDD60701

Issued at 11:11 pm CST Wednesday 4 May 2016 (issued every 10 minutes, with the page automatically refreshed every 10 minutes)

About coastal observations | Map of coastal stations | Coastal observations for NT | Marine services | Other Formats
Station Details ID: 014142 Name: PIRLANGIMPI AIRPORT Lat: -11.40 Lon: 130.42 Height: 18.3 m
Data from the previous 72 hours. | See also: Recent months at Pirlangimpi (Garden Point)
Date/Time
CST
Temp

°C
Wind Pressure Rain
since 9am
mm
Weather Cloud Vis
km
Sea
Height
m
Swell
Dir
 
Speed
knots
Gust
knots
hPa Trend Height
m
Period
s
Dir
04/11:00pm 25.3 CALM 0 0 1011.7 - 3.0 - - - - - - -
04/10:30pm 25.4 CALM 0 0 1012.0 - 3.0 - - - - - - -
04/10:00pm 25.3 NE 1 2 1012.1 - 3.0 - - - - - - -
04/09:30pm 25.4 CALM 0 0 1012.4 - 3.0 - - - - - - -
04/09:00pm 25.4 CALM 0 0 1012.3 - 3.0 - - - - - - -
04/08:30pm 25.3 CALM 0 2 1012.2 - 3.0 - - - - - - -
04/08:00pm 25.4 CALM 0 0 1011.7 - 3.0 - - - - - - -
04/07:30pm 25.6 CALM 0 0 1011.3 - 3.0 - - - - - - -
04/07:00pm 25.9 CALM 0 0 1011.0 - 3.0 - - - - - - -
04/06:30pm 26.2 CALM 0 0 1010.7 - 3.0 - - - - - - -
04/06:00pm 26.4 CALM 0 0 1010.2 - 3.0 - - - - - - -
04/05:30pm 26.9 E 1 2 1010.0 - 3.0 - - - - - - -
04/05:00pm 27.0 E 3 5 1009.7 - 3.0 - - - - - - -
04/04:30pm 27.3 ENE 5 7 1009.7 - 3.0 - - - - - - -
04/04:00pm 27.1 ENE 2 5 1009.2 - 3.0 - - - - - - -
04/03:30pm 26.9 NE 4 6 1009.5 - 3.0 - - - - - - -
04/03:00pm 27.1 E 3 4 1009.9 - 1.8 Recent precip. - - - - - -
04/02:30pm 25.9 ESE 3 5 1010.1 - 1.6 - - - - - - -
04/02:00pm 25.3 SSE 3 6 1010.4 - 1.6 - - - - - - -
04/01:30pm 25.4 SE 3 5 1010.6 - 1.4 - - - - - - -
04/01:00pm 25.6 SE 5 8 1011.2 - 0.4 - - - - - - -
04/12:30pm 27.0 ENE 4 6 1011.5 - 0.2 - - - - - - -
04/12:00pm 27.2 NE 13 21 1011.8 - 0.2 - - - - - - -
04/11:30am 31.3 E 5 11 1011.7 - 0.2 - - - - - - -
04/11:00am 30.6 ENE 6 10 1012.2 - 0.2 - - - - - - -
04/10:30am 31.0 NE 5 10 1012.3 - 0.2 - - - - - - -
04/10:00am 29.7 ENE 6 9 1012.4 - 0.2 - - - - - - -
04/09:30am 28.3 ENE 5 7 1012.2 - 0.0 - - - - - - -
04/09:00am 27.3 NE 5 9 1012.3 - 2.8 - - - - - - -
04/08:30am 26.3 NE 5 9 1012.0 - 2.8 - - - - - - -
04/08:00am 25.7 NNE 3 6 1012.1 - 2.8 - - - - - - -
04/07:30am 25.1 ENE 4 6 1011.8 - 2.8 - - - - - - -
04/07:00am 24.9 NE 1 2 1011.0 - 2.8 - - - - - - -
04/06:30am 24.9 NE 4 6 1010.8 - 2.8 - - - - - - -
04/06:00am 25.2 NE 5 9 1010.8 - 2.8 - - - - - - -
04/05:30am 24.6 SE 1 2 1010.3 - 2.8 - - - - - - -
04/05:00am 24.9 CALM 0 1 1010.2 - 2.8 - - - - - - -
04/04:30am 24.8 SE 1 2 1010.0 - 2.8 - - - - - - -
04/04:00am 24.9 SSE 2 3 1010.1 - 2.8 - - - - - - -
04/03:30am 24.9 SE 1 2 1010.3 - 2.8 - - - - - - -
04/03:00am 24.8 CALM 0 0 1010.5 - 2.8 - - - - - - -
04/02:30am 24.9 CALM 0 0 1010.9 - 2.8 - - - - - - -
04/02:00am 25.0 S 1 2 1011.1 - 2.8 - - - - - - -
04/01:30am 25.0 CALM 0 0 1011.1 - 2.8 - - - - - - -
04/01:00am 25.1 NE 2 3 1011.2 - 2.8 - - - - - - -
04/12:30am 25.2 NE 2 4 1011.0 - 2.8 - - - - - - -
04/12:00am 25.5 ENE 3 4 1011.4 - 2.8 - - - - - - -
 
Date/Time
CST
Temp

°C
Wind Pressure Rain
since 9am
mm
Weather Cloud Vis
km
Sea
Height
m
Swell
Dir
 
Speed
knots
Gust
knots
hPa Trend Height
m
Period
s
Dir
03/11:30pm 25.6 ESE 2 3 1011.8 - 2.8 - - - - - - -
03/11:00pm 25.5 E 2 3 1012.2 - 2.8 - - - - - - -
03/10:30pm 25.7 SE 2 2 1012.4 - 2.8 - - - - - - -
03/10:00pm 25.4 E 2 3 1012.4 - 2.8 - - - - - - -
03/09:30pm 25.3 SSW 2 3 1012.2 - 2.8 - - - - - - -
03/09:00pm 25.5 ESE 3 5 1011.6 - 2.8 - - - - - - -
03/08:30pm 25.3 ESE 3 4 1010.8 - 2.8 - - - - - - -
03/08:00pm 25.3 SE 2 3 1010.2 - 2.8 - - - - - - -
03/07:30pm 25.6 SE 3 4 1009.7 - 2.8 - - - - - - -
03/07:00pm 25.7 NE 4 7 1009.4 - 2.8 - - - - - - -
03/06:30pm 25.8 NE 4 7 1009.2 - 2.8 - - - - - - -
03/06:00pm 25.8 ENE 3 5 1009.1 - 2.8 - - - - - - -
03/05:30pm 26.0 ENE 3 4 1009.4 - 2.8 - - - - - - -
03/05:00pm 25.8 E 3 5 1009.6 - 2.8 - - - - - - -
03/04:30pm 26.1 E 4 5 1009.6 - 2.8 - - - - - - -
03/04:00pm 26.1 E 4 6 1009.3 - 2.8 - - - - - - -
03/03:30pm 26.1 E 5 8 1009.3 - 2.8 - - - - - - -
03/03:00pm 26.2 ESE 5 8 1009.9 - 2.8 - - - - - - -
03/02:30pm 26.0 ESE 3 6 1010.4 - 2.8 - - - - - - -
03/02:00pm 25.9 ENE 4 6 1010.7 - 2.8 - - - - - - -
03/01:30pm 25.6 ENE 6 9 1010.6 - 2.4 - - - - - - -
03/01:00pm 25.6 ENE 6 11 1011.1 - 2.4 - - - - - - -
03/12:30pm 25.6 ENE 5 9 1011.7 - 2.2 - - - - - - -
03/12:00pm 25.0 NE 2 4 1012.2 - 1.6 Recent precip. - - - - - -
03/11:30am 25.1 NNE 4 8 1012.0 - 1.2 - - - - - - -
03/11:00am 27.1 NE 2 3 1012.4 - 1.2 - - - - - - -
03/10:30am 26.7 NNE 2 4 1012.5 - 1.2 - - - - - - -
03/10:00am 27.6 N 2 4 1012.4 - 0.2 - - - - - - -
03/09:30am 28.4 N 2 5 1012.2 - 0.0 - - - - - - -
03/09:00am 29.8 ENE 4 7 1011.8 - 13.2 - - - - - - -
03/08:30am 27.9 ESE 3 6 1011.6 - 13.2 - - - - - - -
03/08:00am 26.8 ESE 3 5 1011.5 - 13.2 - - - - - - -
03/07:30am 26.1 E 3 5 1011.0 - 13.2 - - - - - - -
03/07:00am 25.5 E 3 5 1010.8 - 13.2 - - - - - - -
03/06:30am 25.3 NNE 2 4 1010.4 - 13.2 - - - - - - -
03/06:00am 25.6 ESE 2 3 1010.3 - 13.2 - - - - - - -
03/05:30am 25.7 ENE 3 4 1010.2 - 13.2 - - - - - - -
03/05:00am 25.8 E 4 5 1009.9 - 13.2 - - - - - - -
03/04:30am 25.5 E 3 5 1010.0 - 13.2 - - - - - - -
03/04:00am 25.1 E 3 4 1010.0 - 13.2 - - - - - - -
03/03:30am 24.9 CALM 0 0 1010.1 - 13.2 - - - - - - -
03/03:00am 25.1 ESE 2 2 1010.1 - 13.2 - - - - - - -
03/02:30am 24.9 CALM 0 0 1010.1 - 13.2 - - - - - - -
03/02:00am 25.0 CALM 0 0 1010.4 - 13.2 - - - - - - -
03/01:30am 25.1 S 1 3 1010.8 - 13.2 - - - - - - -
03/01:00am 25.2 CALM 0 2 1011.2 - 13.2 - - - - - - -
03/12:30am 25.5 ENE 2 3 1011.8 - 13.2 - - - - - - -
03/12:00am 25.6 CALM 0 3 1012.5 - 13.2 - - - - - - -
 
Date/Time
CST
Temp

°C
Wind Pressure Rain
since 9am
mm
Weather Cloud Vis
km
Sea
Height
m
Swell
Dir
 
Speed
knots
Gust
knots
hPa Trend Height
m
Period
s
Dir
02/11:30pm 25.7 CALM 0 1 1012.6 - 13.2 - - - - - - -
02/11:00pm 25.7 NE 1 2 1012.2 - 13.2 - - - - - - -
02/10:30pm 25.8 ENE 1 2 1012.3 - 13.2 - - - - - - -
02/10:00pm 25.8 CALM 0 0 1012.7 - 13.2 - - - - - - -
02/09:30pm 25.8 SSE 2 3 1012.7 - 13.2 - - - - - - -
02/09:00pm 25.6 CALM 0 0 1012.4 - 13.2 - - - - - - -
02/08:30pm 25.6 CALM 0 0 1012.3 - 13.2 - - - - - - -
02/08:00pm 25.6 CALM 0 0 1011.6 - 13.2 - - - - - - -
02/07:30pm 25.7 CALM 0 0 1011.2 - 13.2 - - - - - - -
02/07:00pm 25.5 N 1 3 1010.9 - 13.2 - - - - - - -
02/06:30pm 27.0 CALM 0 2 1010.4 - 12.0 - - - - - - -
02/06:00pm 27.1 SSE 3 4 1010.0 - 11.2 - - - - - - -
02/05:30pm 27.5 SSE 1 2 1009.8 - 11.2 - - - - - - -
02/05:00pm 27.5 CALM 0 0 1009.4 - 11.2 - - - - - - -
02/04:30pm 27.9 NE 1 3 1009.1 - 11.2 - - - - - - -
02/04:00pm 28.0 NNE 1 5 1008.7 - 11.2 - - - - - - -
02/03:30pm 27.6 NNE 2 4 1008.7 - 11.2 - - - - - - -
02/03:00pm 27.4 CALM 0 0 1009.1 - 11.2 Recent precip. - - - - - -
02/02:30pm 27.3 N 1 2 1009.5 - 11.2 - - - - - - -
02/02:00pm 27.4 ENE 5 8 1009.7 - 11.0 - - - - - - -
02/01:30pm 27.1 NNE 3 8 1010.2 - 11.0 - - - - - - -
02/01:00pm 27.2 NE 3 15 1010.6 - 8.8 - - - - - - -
02/12:30pm 30.8 ENE 7 11 1010.6 - 0.2 - - - - - - -
02/12:00pm 31.2 ENE 8 13 1010.7 - 0.2 - - - - - - -
02/11:30am 31.1 ENE 7 12 1011.5 - 0.2 - - - - - - -
02/11:00am 30.1 E 6 9 1011.6 - 0.2 - - - - - - -
02/10:30am 29.9 ENE 7 14 1011.9 - 0.2 - - - - - - -
02/10:00am 29.4 E 5 9 1012.0 - 0.0 - - - - - - -
02/09:30am 28.3 E 5 9 1011.7 - 0.0 - - - - - - -
02/09:00am 27.4 E 4 8 1011.5 - 9.0 - - - - - - -
02/08:30am 26.8 E 3 5 1011.2 - 9.0 - - - - - - -
02/08:00am 26.4 ESE 4 7 1010.6 - 9.0 - - - - - - -
02/07:30am 26.3 E 4 7 1010.2 - 9.0 - - - - - - -
02/07:00am 26.2 E 3 5 1010.2 - 9.0 - - - - - - -
02/06:30am 26.2 E 3 5 1009.9 - 9.0 - - - - - - -
02/06:00am 25.7 E 4 6 1009.3 - 9.0 - - - - - - -
02/05:30am 25.3 ENE 1 3 1009.4 - 9.0 - - - - - - -
02/05:00am 25.2 NE 3 3 1009.8 - 9.0 - - - - - - -
02/04:30am 25.4 E 1 3 1009.2 - 9.0 - - - - - - -
02/04:00am 25.5 CALM 0 1 1009.2 - 9.0 - - - - - - -
02/03:30am 25.5 SSE 2 3 1009.4 - 9.0 - - - - - - -
02/03:00am 25.6 E 1 2 1010.0 - 9.0 - - - - - - -
02/02:30am 25.5 CALM 0 2 1009.9 - 9.0 - - - - - - -
02/02:00am 25.7 SE 2 4 1009.9 - 9.0 - - - - - - -
02/01:30am 25.7 ESE 1 2 1009.9 - 9.0 - - - - - - -
02/01:00am 25.8 SE 1 2 1010.6 - 9.0 - - - - - - -
02/12:30am 25.9 S 2 3 1010.5 - 9.0 - - - - - - -
02/12:00am 25.9 SSE 2 3 1010.7 - 9.0 - - - - - - -
 
Date/Time
CST
Temp

°C
Wind Pressure Rain
since 9am
mm
Weather Cloud Vis
km
Sea
Height
m
Swell
Dir
 
Speed
knots
Gust
knots
hPa Trend Height
m
Period
s
Dir
01/11:30pm 25.7 CALM 0 0 1011.0 - 9.0 - - - - - - -

Other Formats:

Comma delimited format used in spreadsheet applications
http://www.bom.gov.au/fwo/IDD60701/IDD60701.94119.axf

JavaScript Object Notation format (JSON) in row-major order
http://www.bom.gov.au/fwo/IDD60701/IDD60701.94119.json